This is the latest recevied weather packets stored in our database for station/object DL8BZ-10. If no packets are shown the sender has not sent any weather packets the latest 10 day(s).
| Time | Temp. | Humidity | Pressure | Rain* | Wind** | Luminosity | Snow |
|---|---|---|---|---|---|---|---|
| 1788593167 | 22.22° C | 49% | 1017.5 hPa | - | - | - | - |
| 1788578743 | 19.44° C | 61% | 1016.2 hPa | - | - | - | - |
| 1788571533 | 19.44° C | 61% | 1015.7 hPa | - | - | - | - |
| 1788564324 | 20° C | 62% | 1015 hPa | - | - | - | - |
| 1788557116 | 20.56° C | 60% | 1014 hPa | - | - | - | - |
| 1788549908 | 21.11° C | 60% | 1013 hPa | - | - | - | - |
| 1788542701 | 22.22° C | 57% | 1011.5 hPa | - | - | - | - |
| 1788528277 | 24.44° C | 51% | 1009.5 hPa | - | - | - | - |
| 1788521065 | 28.33° C | 45% | 1008.7 hPa | - | - | - | - |
| 1788513851 | 24.44° C | 53% | 1009.7 hPa | - | - | - | - |
| 1788506639 | 22.78° C | 58% | 1010.8 hPa | - | - | - | - |
| 1788499429 | 21.67° C | 61% | 1011.8 hPa | - | - | - | - |
| 1788485008 | 21.11° C | 58% | 1014.4 hPa | - | - | - | - |
| 1788477797 | 21.11° C | 57% | 1015.6 hPa | - | - | - | - |
| 1788470588 | 21.67° C | 56% | 1016.5 hPa | - | - | - | - |
| 1788463379 | 21.67° C | 56% | 1016.2 hPa | - | - | - | - |
| 1788456169 | 23.89° C | 51% | 1015.6 hPa | - | - | - | - |
| 1788448959 | 27.22° C | 45% | 1015.5 hPa | - | - | - | - |
| 1788427322 | 22.78° C | 48% | 1015.9 hPa | - | - | - | - |
| 1788420108 | 22.78° C | 47% | 1016 hPa | - | - | - | - |
| 1788412898 | 20.56° C | 54% | 1016.4 hPa | - | - | - | - |
| 1788398480 | 21.11° C | 55% | 1018.2 hPa | - | - | - | - |
| 1788391272 | 21.11° C | 54% | 1019.1 hPa | - | - | - | - |
| 1788384064 | 21.67° C | 53% | 1019.7 hPa | - | - | - | - |
| 1788376855 | 22.22° C | 51% | 1019.9 hPa | - | - | - | - |
* Rain since midnight (hover to see other rain measurements)
** Current wind speed in m/s (hover to see current wind gust speed)